createdAt,value
2019-04-04T00:00:35.700Z,15.90
2019-04-04T00:01:16.720Z,16.55
2019-04-04T00:01:49.243Z,15.32
2019-04-04T00:02:22.530Z,16.82
2019-04-04T00:02:55.802Z,15.28
2019-04-04T00:03:29.078Z,15.93
2019-04-04T00:04:02.590Z,15.53
2019-04-04T00:04:36.153Z,15.35
2019-04-04T00:05:09.426Z,14.43
2019-04-04T00:05:42.695Z,15.38
2019-04-04T00:06:16.026Z,16.25
2019-04-04T00:06:49.329Z,16.30
2019-04-04T00:07:22.628Z,14.90
2019-04-04T00:07:55.896Z,15.38
2019-04-04T00:08:31.625Z,15.30
2019-04-04T00:09:06.855Z,15.55
2019-04-04T00:09:40.172Z,15.85
2019-04-04T00:10:13.511Z,16.02
2019-04-04T00:10:46.775Z,15.83
2019-04-04T00:11:20.054Z,15.23
2019-04-04T00:11:53.337Z,16.05
2019-04-04T00:12:26.717Z,15.85
2019-04-04T00:13:00.109Z,15.65
2019-04-04T00:13:33.409Z,15.45
2019-04-04T00:14:06.676Z,15.65
2019-04-04T00:14:39.966Z,14.90
2019-04-04T00:15:14.948Z,15.50
2019-04-04T00:15:48.423Z,14.05
2019-04-04T00:16:21.694Z,15.18
2019-04-04T00:16:54.961Z,15.98
2019-04-04T00:17:29.266Z,15.83
2019-04-04T00:18:02.655Z,15.88
2019-04-04T00:18:35.942Z,15.55
2019-04-04T00:19:09.277Z,15.28
2019-04-04T00:19:42.554Z,16.23
2019-04-04T00:20:15.853Z,15.08
2019-04-04T00:20:49.759Z,15.93
2019-04-04T00:21:23.140Z,15.48
2019-04-04T00:21:56.399Z,14.85
2019-04-04T00:22:30.406Z,15.80
2019-04-04T00:23:05.023Z,15.10
2019-04-04T00:23:38.672Z,15.13
2019-04-04T00:24:11.953Z,15.72
2019-04-04T00:24:45.218Z,15.78
2019-04-04T00:25:18.496Z,15.65
2019-04-04T00:25:51.854Z,15.23
2019-04-04T00:26:25.152Z,15.78
2019-04-04T00:26:58.423Z,15.40
2019-04-04T00:27:31.722Z,14.30
2019-04-04T00:28:05.063Z,16.07
2019-04-04T00:28:38.359Z,16.40
2019-04-04T00:29:11.623Z,15.43
2019-04-04T00:29:47.678Z,15.13
2019-04-04T00:30:19.969Z,15.03
2019-04-04T00:30:53.236Z,14.90
2019-04-04T00:31:26.530Z,16.10
2019-04-04T00:31:59.973Z,16.70
2019-04-04T00:32:33.503Z,16.45
2019-04-04T00:33:06.815Z,16.23
2019-04-04T00:33:40.091Z,16.32
2019-04-04T00:34:13.769Z,16.30
2019-04-04T00:34:47.223Z,15.25
2019-04-04T00:35:20.547Z,16.07
2019-04-04T00:35:53.818Z,16.10
2019-04-04T00:36:27.101Z,16.73
2019-04-04T00:37:00.382Z,15.58
2019-04-04T00:37:34.430Z,14.80
2019-04-04T00:38:09.038Z,14.85
2019-04-04T00:38:42.313Z,16.70
2019-04-04T00:39:15.585Z,14.78
2019-04-04T00:39:48.849Z,15.93
2019-04-04T00:40:22.121Z,16.45
2019-04-04T00:40:55.390Z,15.98
2019-04-04T00:41:28.657Z,16.27
2019-04-04T00:42:01.930Z,15.35
2019-04-04T00:42:35.227Z,14.50
2019-04-04T00:43:08.478Z,15.40
2019-04-04T00:43:41.823Z,15.35
2019-04-04T00:44:15.099Z,15.80
2019-04-04T00:44:48.365Z,15.53
2019-04-04T00:45:21.699Z,15.00
2019-04-04T00:45:54.972Z,14.85
2019-04-04T00:46:28.986Z,15.63
2019-04-04T00:47:03.273Z,15.63
2019-04-04T00:47:36.874Z,16.62
2019-04-04T00:48:10.149Z,15.78
2019-04-04T00:48:43.491Z,16.50
2019-04-04T00:49:16.753Z,15.78
2019-04-04T00:49:50.023Z,15.58
2019-04-04T00:50:23.302Z,15.95
2019-04-04T00:50:56.562Z,16.55
2019-04-04T00:51:29.837Z,15.48
2019-04-04T00:52:03.167Z,16.00
2019-04-04T00:52:36.452Z,15.00
2019-04-04T00:53:09.911Z,15.90
2019-04-04T00:53:44.749Z,15.48
2019-04-04T00:54:18.042Z,16.75
2019-04-04T00:54:51.318Z,15.08
2019-04-04T00:55:24.614Z,15.60
2019-04-04T00:55:57.882Z,14.83
2019-04-04T00:56:31.163Z,14.47
2019-04-04T00:57:04.514Z,16.30
2019-04-04T00:57:37.829Z,15.60
2019-04-04T00:58:11.954Z,15.50
2019-04-04T00:58:45.231Z,16.15
2019-04-04T00:59:18.494Z,15.58
2019-04-04T00:59:53.328Z,15.23
2019-04-04T01:00:26.777Z,17.10
2019-04-04T01:01:00.047Z,14.43
2019-04-04T01:01:33.321Z,16.60
2019-04-04T01:02:06.591Z,16.50
2019-04-04T01:02:39.877Z,15.35
2019-04-04T01:03:13.188Z,16.00
2019-04-04T01:03:46.449Z,16.77
2019-04-04T01:04:19.726Z,15.35
2019-04-04T01:04:53.014Z,16.25
2019-04-04T01:05:26.319Z,16.75
2019-04-04T01:06:02.814Z,16.35
2019-04-04T01:06:34.590Z,15.85
2019-04-04T01:07:07.868Z,15.45
2019-04-04T01:07:41.202Z,16.20
2019-04-04T01:08:14.488Z,16.65
2019-04-04T01:08:47.774Z,14.60
2019-04-04T01:09:21.047Z,14.90
2019-04-04T01:09:54.317Z,15.80
2019-04-04T01:10:27.582Z,15.70
2019-04-04T01:11:00.852Z,16.67
2019-04-04T01:11:34.118Z,15.85
2019-04-04T01:12:07.386Z,15.85
2019-04-04T01:12:40.650Z,15.83
2019-04-04T01:13:13.941Z,15.72
2019-04-04T01:13:47.261Z,16.10
2019-04-04T01:14:20.518Z,16.23
2019-04-04T01:14:53.801Z,15.75
2019-04-04T01:15:28.992Z,16.17
2019-04-04T01:16:02.899Z,15.80
2019-04-04T01:16:36.843Z,17.20
2019-04-04T01:17:10.109Z,15.00
2019-04-04T01:17:43.506Z,16.10
2019-04-04T01:18:17.287Z,16.30
2019-04-04T01:18:50.574Z,16.00
2019-04-04T01:19:23.923Z,16.85
2019-04-04T01:19:57.191Z,16.85
2019-04-04T01:20:30.460Z,14.85
2019-04-04T01:21:03.774Z,15.58
2019-04-04T01:21:37.042Z,16.70
2019-04-04T01:22:10.314Z,15.38
2019-04-04T01:22:43.604Z,16.35
2019-04-04T01:23:17.933Z,16.45
2019-04-04T01:23:51.200Z,16.57
2019-04-04T01:24:24.479Z,16.97
2019-04-04T01:24:59.063Z,16.02
2019-04-04T01:25:32.897Z,15.93
2019-04-04T01:26:06.358Z,16.48
2019-04-04T01:26:39.649Z,16.00
2019-04-04T01:27:12.981Z,15.38
2019-04-04T01:27:46.266Z,16.87
2019-04-04T01:28:20.366Z,17.77
2019-04-04T01:28:53.627Z,16.35
2019-04-04T01:29:26.917Z,15.98
2019-04-04T01:30:00.199Z,14.70
2019-04-04T01:30:33.490Z,15.95
2019-04-04T01:31:06.783Z,16.00
2019-04-04T01:31:40.143Z,16.62
2019-04-04T01:32:15.027Z,15.08
2019-04-04T01:32:48.800Z,15.25
2019-04-04T01:33:22.567Z,15.65
2019-04-04T01:33:55.837Z,16.27
2019-04-04T01:34:29.539Z,16.25
2019-04-04T01:35:03.132Z,16.07
2019-04-04T01:35:36.649Z,15.45
2019-04-04T01:36:10.138Z,15.25
2019-04-04T01:36:43.635Z,16.12
2019-04-04T01:37:17.154Z,16.32
2019-04-04T01:37:50.652Z,14.95
2019-04-04T01:38:24.504Z,15.90
2019-04-04T01:38:59.949Z,16.00
2019-04-04T01:39:33.268Z,15.10
2019-04-04T01:40:07.166Z,15.78
2019-04-04T01:40:40.844Z,17.02
2019-04-04T01:41:14.319Z,15.60
2019-04-04T01:41:47.814Z,16.90
2019-04-04T01:42:21.226Z,16.37
2019-04-04T01:42:54.699Z,16.05
2019-04-04T01:43:28.246Z,16.02
2019-04-04T01:44:05.289Z,16.35
2019-04-04T01:44:36.970Z,15.72
2019-04-04T01:45:12.736Z,15.72
2019-04-04T01:45:45.866Z,16.15
2019-04-04T01:46:19.349Z,15.58
2019-04-04T01:46:52.830Z,16.15
2019-04-04T01:47:26.327Z,15.83
2019-04-04T01:47:59.810Z,16.12
2019-04-04T01:48:33.304Z,15.70
2019-04-04T01:49:06.793Z,16.12
2019-04-04T01:49:40.198Z,14.85
2019-04-04T01:50:13.989Z,16.10
2019-04-04T01:50:47.494Z,16.65
2019-04-04T01:51:20.998Z,16.40
2019-04-04T01:51:56.787Z,16.12
2019-04-04T01:52:29.721Z,17.87
2019-04-04T01:53:03.230Z,15.53
2019-04-04T01:53:37.782Z,15.40
2019-04-04T01:54:11.302Z,16.48
2019-04-04T01:54:44.843Z,16.40
2019-04-04T01:55:18.318Z,16.35
2019-04-04T01:55:51.801Z,15.45
2019-04-04T01:56:25.288Z,16.97
2019-04-04T01:56:58.762Z,15.58
2019-04-04T01:57:32.261Z,15.43
2019-04-04T01:58:05.754Z,16.50
2019-04-04T01:58:41.785Z,16.35
2019-04-04T01:59:14.494Z,16.48
2019-04-04T01:59:47.966Z,15.55
2019-04-04T02:00:21.464Z,16.57
2019-04-04T02:00:54.949Z,17.48
2019-04-04T02:01:28.539Z,15.28
2019-04-04T02:02:02.023Z,16.70
2019-04-04T02:02:35.509Z,14.58
2019-04-04T02:03:08.993Z,16.15
2019-04-04T02:03:42.918Z,15.08
2019-04-04T02:04:16.406Z,16.23
2019-04-04T02:04:49.962Z,15.40
2019-04-04T02:05:26.807Z,17.57
2019-04-04T02:05:58.773Z,15.90
2019-04-04T02:06:32.413Z,15.35
2019-04-04T02:07:06.141Z,15.98
2019-04-04T02:07:39.622Z,16.37
2019-04-04T02:08:13.103Z,15.63
2019-04-04T02:08:46.603Z,15.88
2019-04-04T02:09:20.079Z,16.93
2019-04-04T02:09:53.590Z,16.52
2019-04-04T02:10:27.099Z,17.02
2019-04-04T02:11:00.589Z,16.40
2019-04-04T02:11:34.093Z,15.05
2019-04-04T02:12:07.873Z,17.20
2019-04-04T02:12:42.225Z,17.40
2019-04-04T02:13:15.738Z,16.60
2019-04-04T02:13:49.424Z,16.00
2019-04-04T02:14:22.913Z,17.95
2019-04-04T02:14:56.392Z,15.70
2019-04-04T02:15:29.873Z,17.20
2019-04-04T02:16:03.374Z,16.55
2019-04-04T02:16:36.871Z,16.95
2019-04-04T02:17:10.361Z,16.97
2019-04-04T02:17:43.843Z,17.25
2019-04-04T02:18:17.337Z,15.50
2019-04-04T02:18:53.543Z,16.65
2019-04-04T02:19:26.242Z,16.45
2019-04-04T02:19:59.741Z,16.60
2019-04-04T02:20:33.248Z,16.57
2019-04-04T02:21:06.723Z,17.40
2019-04-04T02:21:40.213Z,16.85
2019-04-04T02:22:13.657Z,16.73
2019-04-04T02:22:47.174Z,15.55
2019-04-04T02:23:20.740Z,16.02
2019-04-04T02:23:54.401Z,17.15
2019-04-04T02:24:27.874Z,15.95
2019-04-04T02:25:03.058Z,16.95
2019-04-04T02:25:37.048Z,15.05
2019-04-04T02:26:10.546Z,16.75
2019-04-04T02:26:44.087Z,15.50
2019-04-04T02:27:17.581Z,16.30
2019-04-04T02:27:51.065Z,17.73
2019-04-04T02:28:24.484Z,16.30
2019-04-04T02:28:57.968Z,16.55
2019-04-04T02:29:31.473Z,16.52
2019-04-04T02:30:05.474Z,15.35
2019-04-04T02:30:38.983Z,16.77
2019-04-04T02:31:12.810Z,18.37
2019-04-04T02:31:53.099Z,17.15
2019-04-04T02:32:26.660Z,15.83
2019-04-04T02:33:00.763Z,16.42
2019-04-04T02:33:34.461Z,16.37
2019-04-04T02:34:08.783Z,16.37
2019-04-04T02:34:42.388Z,16.95
2019-04-04T02:35:15.882Z,17.62
2019-04-04T02:35:49.368Z,17.05
2019-04-04T02:36:22.862Z,18.23
2019-04-04T02:36:56.351Z,16.93
2019-04-04T02:37:29.835Z,16.30
2019-04-04T02:38:03.553Z,18.10
2019-04-04T02:38:37.032Z,16.42
2019-04-04T02:39:12.378Z,16.60
2019-04-04T02:39:45.865Z,16.90
2019-04-04T02:40:19.341Z,17.40
2019-04-04T02:40:52.819Z,17.15
2019-04-04T02:41:26.322Z,15.45
2019-04-04T02:41:59.871Z,16.62
2019-04-04T02:42:33.345Z,17.90
2019-04-04T02:43:06.825Z,17.50
2019-04-04T02:43:40.299Z,17.15
2019-04-04T02:44:13.812Z,18.05
2019-04-04T02:44:47.286Z,17.05
2019-04-04T02:45:20.778Z,18.17
2019-04-04T02:45:54.273Z,18.20
2019-04-04T02:46:27.738Z,17.00
2019-04-04T02:47:01.216Z,17.35
2019-04-04T02:47:34.694Z,17.20
2019-04-04T02:48:08.181Z,16.42
2019-04-04T02:48:41.661Z,16.77
2019-04-04T02:49:15.148Z,17.50
2019-04-04T02:49:48.658Z,16.20
2019-04-04T02:50:22.126Z,18.02
2019-04-04T02:50:55.615Z,17.32
2019-04-04T02:51:29.094Z,16.48
2019-04-04T02:52:02.589Z,16.57
2019-04-04T02:52:36.103Z,17.52
2019-04-04T02:53:09.630Z,16.25
2019-04-04T02:53:43.125Z,17.25
2019-04-04T02:54:16.612Z,16.35
2019-04-04T02:54:50.102Z,17.10
2019-04-04T02:55:24.319Z,17.40
2019-04-04T02:56:02.307Z,17.57
2019-04-04T02:56:36.030Z,15.75
2019-04-04T02:57:09.289Z,16.32
2019-04-04T02:57:43.244Z,17.50
2019-04-04T02:58:16.732Z,18.85
2019-04-04T02:58:50.835Z,17.70
2019-04-04T02:59:24.315Z,17.25
2019-04-04T02:59:58.762Z,16.20
2019-04-04T03:00:32.337Z,18.07
2019-04-04T03:01:05.809Z,17.52
2019-04-04T03:01:39.284Z,17.10
2019-04-04T03:02:12.774Z,17.48
2019-04-04T03:02:46.241Z,17.67
2019-04-04T03:03:19.710Z,17.05
2019-04-04T03:03:53.126Z,17.10
2019-04-04T03:04:26.670Z,17.32
2019-04-04T03:05:00.247Z,18.17
2019-04-04T03:05:33.715Z,17.82
2019-04-04T03:06:07.203Z,16.90
2019-04-04T03:06:40.765Z,18.02
2019-04-04T03:07:14.262Z,17.87
2019-04-04T03:07:47.750Z,17.15
2019-04-04T03:08:21.227Z,17.52
2019-04-04T03:08:54.703Z,15.95
2019-04-04T03:09:28.189Z,17.50
2019-04-04T03:10:01.758Z,17.00
2019-04-04T03:10:35.254Z,17.80
2019-04-04T03:11:08.730Z,17.80
2019-04-04T03:11:42.250Z,16.77
2019-04-04T03:12:15.779Z,17.12
2019-04-04T03:12:49.262Z,17.32
2019-04-04T03:13:22.735Z,18.30
2019-04-04T03:13:56.518Z,17.50
2019-04-04T03:14:30.000Z,17.05
2019-04-04T03:15:06.298Z,16.57
2019-04-04T03:15:41.502Z,18.10
2019-04-04T03:16:15.209Z,17.10
2019-04-04T03:16:48.748Z,17.82
2019-04-04T03:17:22.223Z,16.95
2019-04-04T03:17:55.695Z,17.23
2019-04-04T03:18:29.277Z,16.77
2019-04-04T03:19:02.828Z,16.90
2019-04-04T03:19:36.348Z,18.70
2019-04-04T03:20:10.662Z,16.57
2019-04-04T03:20:44.177Z,18.02
2019-04-04T03:21:21.991Z,18.15
2019-04-04T03:21:55.877Z,18.50
2019-04-04T03:22:28.355Z,17.48
2019-04-04T03:23:02.111Z,17.02
2019-04-04T03:23:35.587Z,18.77
2019-04-04T03:24:09.078Z,17.67
2019-04-04T03:24:44.847Z,16.60
2019-04-04T03:25:18.277Z,17.20
2019-04-04T03:25:51.757Z,18.48
2019-04-04T03:26:25.274Z,17.12
2019-04-04T03:26:58.790Z,17.35
2019-04-04T03:27:32.261Z,17.07
2019-04-04T03:28:05.746Z,18.37
2019-04-04T03:28:39.238Z,17.70
2019-04-04T03:29:12.713Z,17.52
2019-04-04T03:29:46.172Z,17.65
2019-04-04T03:30:19.808Z,17.90
2019-04-04T03:31:01.739Z,17.02
2019-04-04T03:31:36.454Z,18.55
2019-04-04T03:32:03.914Z,17.98
2019-04-04T03:32:37.394Z,17.25
2019-04-04T03:33:10.954Z,17.45
2019-04-04T03:33:44.482Z,17.23
2019-04-04T03:34:17.969Z,18.27
2019-04-04T03:34:51.923Z,17.35
2019-04-04T03:35:28.989Z,17.15
2019-04-04T03:36:02.032Z,18.82
2019-04-04T03:36:35.515Z,18.35
2019-04-04T03:37:12.149Z,17.75
2019-04-04T03:37:46.159Z,17.77
2019-04-04T03:38:19.393Z,18.37
2019-04-04T03:38:52.911Z,17.75
2019-04-04T03:39:26.405Z,17.10
2019-04-04T03:39:59.946Z,18.32
2019-04-04T03:40:33.469Z,17.62
2019-04-04T03:41:07.314Z,17.27
2019-04-04T03:41:40.810Z,16.20
2019-04-04T03:42:14.353Z,17.70
2019-04-04T03:42:47.840Z,18.05
2019-04-04T03:43:21.315Z,18.62
2019-04-04T03:43:54.728Z,17.07
2019-04-04T03:44:28.202Z,16.87
2019-04-04T03:45:01.686Z,18.20
2019-04-04T03:45:35.182Z,17.67
2019-04-04T03:46:08.659Z,19.05
2019-04-04T03:46:42.149Z,18.42
2019-04-04T03:47:15.698Z,18.02
2019-04-04T03:47:49.165Z,17.35
2019-04-04T03:48:22.642Z,18.23
2019-04-04T03:48:56.122Z,18.17
2019-04-04T03:49:29.607Z,18.52
2019-04-04T03:50:03.216Z,17.92
2019-04-04T03:50:36.787Z,16.90
2019-04-04T03:51:10.262Z,19.05
2019-04-04T03:51:43.865Z,17.05
2019-04-04T03:52:17.386Z,17.80
2019-04-04T03:52:50.862Z,18.23
2019-04-04T03:53:24.342Z,17.90
2019-04-04T03:53:59.670Z,18.55
2019-04-04T03:54:33.145Z,17.48
2019-04-04T03:55:06.862Z,16.70
2019-04-04T03:55:40.390Z,16.67
2019-04-04T03:56:13.883Z,17.20
2019-04-04T03:56:47.366Z,18.20
2019-04-04T03:57:20.840Z,17.10
2019-04-04T03:57:55.130Z,17.98
2019-04-04T03:58:28.944Z,17.45
2019-04-04T03:59:02.474Z,17.17
2019-04-04T03:59:36.003Z,18.60
2019-04-04T04:00:09.688Z,18.40
2019-04-04T04:00:43.179Z,18.00
2019-04-04T04:01:16.651Z,17.73
2019-04-04T04:01:50.122Z,19.87
2019-04-04T04:02:23.618Z,18.00
2019-04-04T04:02:57.095Z,18.90
2019-04-04T04:03:30.587Z,19.80
2019-04-04T04:04:04.083Z,18.50
2019-04-04T04:04:37.579Z,18.30
2019-04-04T04:05:18.292Z,18.70
2019-04-04T04:05:52.209Z,17.62
2019-04-04T04:06:25.692Z,17.60
2019-04-04T04:06:59.187Z,17.57
2019-04-04T04:07:32.661Z,19.10
2019-04-04T04:08:06.150Z,17.92
2019-04-04T04:08:39.637Z,17.98
2019-04-04T04:09:13.109Z,19.00
2019-04-04T04:09:46.583Z,18.15
2019-04-04T04:10:20.067Z,18.60
2019-04-04T04:10:53.569Z,18.37
2019-04-04T04:11:27.165Z,19.23
2019-04-04T04:12:00.736Z,18.70
2019-04-04T04:12:34.132Z,17.85
2019-04-04T04:13:08.370Z,18.32
2019-04-04T04:13:41.850Z,18.35
2019-04-04T04:14:15.283Z,19.77
2019-04-04T04:14:48.692Z,17.65
2019-04-04T04:15:23.545Z,18.45
2019-04-04T04:16:02.703Z,18.02
2019-04-04T04:16:36.012Z,17.50
2019-04-04T04:17:11.538Z,18.35
2019-04-04T04:17:45.675Z,18.75
2019-04-04T04:18:21.326Z,17.45
2019-04-04T04:18:55.472Z,18.00
2019-04-04T04:19:30.883Z,19.48
2019-04-04T04:20:04.894Z,18.15
2019-04-04T04:20:38.757Z,18.20
2019-04-04T04:21:12.319Z,17.87
2019-04-04T04:21:45.722Z,19.75
2019-04-04T04:22:19.552Z,19.30
2019-04-04T04:22:53.250Z,18.48
2019-04-04T04:23:26.718Z,17.50
2019-04-04T04:24:00.197Z,18.80
2019-04-04T04:24:33.682Z,17.65
2019-04-04T04:25:07.170Z,17.85
2019-04-04T04:25:43.027Z,18.82
2019-04-04T04:26:17.424Z,18.55
2019-04-04T04:26:50.898Z,17.12
2019-04-04T04:27:24.410Z,17.82
2019-04-04T04:27:57.887Z,18.73
2019-04-04T04:28:31.367Z,18.40
2019-04-04T04:29:04.857Z,19.73
2019-04-04T04:29:38.342Z,18.35
2019-04-04T04:30:11.934Z,17.98
2019-04-04T04:30:45.436Z,18.37
2019-04-04T04:31:18.999Z,18.17
2019-04-04T04:31:52.431Z,18.05
2019-04-04T04:32:25.921Z,18.17
2019-04-04T04:32:59.401Z,18.95
2019-04-04T04:33:32.944Z,18.65
2019-04-04T04:34:06.692Z,19.07
2019-04-04T04:34:40.163Z,18.48
2019-04-04T04:35:13.643Z,17.92
2019-04-04T04:35:47.144Z,18.62
2019-04-04T04:36:21.153Z,17.77
2019-04-04T04:36:54.686Z,18.80
2019-04-04T04:37:28.161Z,19.35
2019-04-04T04:38:01.643Z,18.07
2019-04-04T04:38:35.126Z,19.57
2019-04-04T04:39:08.608Z,18.90
2019-04-04T04:39:42.110Z,18.57
2019-04-04T04:40:15.577Z,19.80
2019-04-04T04:40:49.246Z,17.98
2019-04-04T04:41:22.746Z,18.40
2019-04-04T04:41:56.238Z,18.40
2019-04-04T04:42:29.726Z,19.15
2019-04-04T04:43:03.155Z,19.37
2019-04-04T04:43:36.716Z,18.35
2019-04-04T04:44:10.245Z,18.90
2019-04-04T04:44:43.753Z,19.27
2019-04-04T04:45:17.234Z,18.42
2019-04-04T04:45:50.760Z,17.32
2019-04-04T04:46:24.359Z,18.62
2019-04-04T04:46:57.842Z,17.52
2019-04-04T04:47:31.337Z,18.95
2019-04-04T04:48:04.827Z,19.92
2019-04-04T04:48:38.242Z,18.37
2019-04-04T04:49:11.725Z,18.82
2019-04-04T04:49:45.212Z,18.95
2019-04-04T04:50:18.703Z,19.85
2019-04-04T04:50:52.305Z,17.82
2019-04-04T04:51:26.067Z,18.70
2019-04-04T04:51:59.469Z,19.85
2019-04-04T04:52:32.871Z,18.35
2019-04-04T04:53:06.355Z,19.30
2019-04-04T04:53:39.832Z,19.57
2019-04-04T04:54:13.320Z,20.35
2019-04-04T04:54:46.818Z,19.05
2019-04-04T04:55:20.310Z,19.40
2019-04-04T04:55:53.794Z,20.30
2019-04-04T04:56:30.927Z,19.15
2019-04-04T04:57:03.902Z,20.35
2019-04-04T04:57:38.338Z,19.05
2019-04-04T04:58:11.973Z,18.23
2019-04-04T04:58:45.448Z,19.05
2019-04-04T04:59:18.930Z,18.30
2019-04-04T04:59:52.418Z,17.85
2019-04-04T05:00:27.719Z,18.80
2019-04-04T05:01:01.191Z,19.45
2019-04-04T05:01:35.584Z,18.90
2019-04-04T05:02:09.060Z,18.92
2019-04-04T05:02:42.539Z,20.50
2019-04-04T05:03:15.946Z,19.40
2019-04-04T05:03:50.765Z,19.07
2019-04-04T05:04:27.990Z,18.70
2019-04-04T05:05:00.054Z,18.45
2019-04-04T05:05:33.752Z,19.70
2019-04-04T05:06:07.271Z,19.25
2019-04-04T05:06:40.819Z,19.48
2019-04-04T05:07:14.310Z,18.77
2019-04-04T05:07:47.786Z,18.20
2019-04-04T05:08:21.345Z,17.75
2019-04-04T05:08:54.821Z,19.42
2019-04-04T05:09:28.304Z,19.00
2019-04-04T05:10:01.913Z,19.77
2019-04-04T05:10:35.411Z,18.48
2019-04-04T05:11:08.901Z,18.50
2019-04-04T05:11:42.522Z,19.77
2019-04-04T05:12:16.015Z,18.87
2019-04-04T05:12:52.803Z,18.87
2019-04-04T05:13:26.145Z,19.55
2019-04-04T05:13:59.756Z,18.40
2019-04-04T05:14:33.297Z,18.85
2019-04-04T05:15:06.978Z,19.40
2019-04-04T05:15:40.393Z,19.60
2019-04-04T05:16:13.876Z,19.20
2019-04-04T05:16:47.690Z,18.67
2019-04-04T05:17:21.174Z,18.87
2019-04-04T05:18:14.152Z,18.65
2019-04-04T05:18:48.985Z,17.87
2019-04-04T05:19:22.473Z,20.97
2019-04-04T05:19:55.967Z,19.25
2019-04-04T05:20:29.763Z,20.57
2019-04-04T05:21:03.534Z,20.02
2019-04-04T05:21:37.039Z,19.62
2019-04-04T05:22:10.584Z,18.85
2019-04-04T05:22:44.075Z,18.90
2019-04-04T05:23:17.574Z,19.50
2019-04-04T05:23:51.113Z,19.30
2019-04-04T05:24:24.625Z,18.80
2019-04-04T05:25:08.134Z,18.80
2019-04-04T05:25:33.561Z,20.50
2019-04-04T05:26:09.584Z,20.50
2019-04-04T05:26:42.792Z,18.12
2019-04-04T05:27:16.331Z,18.60
2019-04-04T05:27:49.837Z,20.27
2019-04-04T05:28:23.315Z,19.42
2019-04-04T05:28:57.261Z,17.48
2019-04-04T05:29:31.016Z,18.17
2019-04-04T05:30:08.128Z,19.62
2019-04-04T05:30:40.315Z,18.80
2019-04-04T05:31:13.810Z,18.27
2019-04-04T05:31:49.887Z,19.17
2019-04-04T05:32:22.506Z,18.15
2019-04-04T05:32:56.528Z,18.42
2019-04-04T05:33:31.557Z,18.87
2019-04-04T05:34:05.437Z,19.92
2019-04-04T05:34:38.876Z,18.73
2019-04-04T05:35:15.009Z,20.10
2019-04-04T05:35:47.825Z,18.65
2019-04-04T05:36:21.372Z,18.73
2019-04-04T05:36:54.929Z,19.15
2019-04-04T05:37:28.356Z,18.73
2019-04-04T05:38:01.833Z,18.00
2019-04-04T05:38:35.300Z,19.30
2019-04-04T05:39:08.973Z,19.65
2019-04-04T05:39:42.490Z,19.85
2019-04-04T05:40:16.566Z,19.35
2019-04-04T05:40:50.066Z,19.42
2019-04-04T05:41:27.040Z,18.67
2019-04-04T05:42:00.396Z,19.32
2019-04-04T05:42:33.917Z,18.23
2019-04-04T05:43:07.402Z,19.23
2019-04-04T05:43:40.901Z,19.15
2019-04-04T05:44:14.432Z,18.37
2019-04-04T05:44:47.913Z,18.02
2019-04-04T05:45:21.423Z,19.80
2019-04-04T05:45:54.891Z,19.15
2019-04-04T05:46:28.362Z,19.42
2019-04-04T05:47:02.925Z,18.10
2019-04-04T05:47:36.398Z,17.52
2019-04-04T05:48:09.879Z,18.17
2019-04-04T05:48:43.290Z,19.10
2019-04-04T05:49:16.780Z,19.17
2019-04-04T05:49:50.186Z,18.17
2019-04-04T05:50:23.669Z,17.50
2019-04-04T05:50:57.205Z,18.70
2019-04-04T05:51:31.715Z,18.92
2019-04-04T05:52:08.843Z,19.42
2019-04-04T05:52:41.573Z,17.87
2019-04-04T05:53:15.046Z,18.55
2019-04-04T05:53:48.450Z,17.27
2019-04-04T05:54:21.874Z,19.00
2019-04-04T05:54:55.286Z,18.00
2019-04-04T05:55:28.764Z,18.50
2019-04-04T05:56:02.299Z,17.02
2019-04-04T05:56:35.852Z,17.70
2019-04-04T05:57:09.369Z,18.62
2019-04-04T05:57:42.845Z,18.02
2019-04-04T05:58:16.317Z,18.10
2019-04-04T05:58:51.060Z,19.07
2019-04-04T05:59:25.009Z,17.45
2019-04-04T05:59:58.551Z,17.00
2019-04-04T06:00:32.127Z,17.90
2019-04-04T06:01:06.451Z,19.20
2019-04-04T06:01:40.016Z,19.20
2019-04-04T06:02:13.561Z,17.40
2019-04-04T06:02:47.088Z,19.00
2019-04-04T06:03:20.577Z,18.48
2019-04-04T06:03:54.215Z,17.20
2019-04-04T06:04:27.808Z,18.90
2019-04-04T06:05:01.256Z,17.80
2019-04-04T06:05:34.757Z,17.90
2019-04-04T06:06:10.455Z,18.57
2019-04-04T06:06:43.441Z,18.30
2019-04-04T06:07:16.961Z,18.87
2019-04-04T06:07:50.530Z,17.37
2019-04-04T06:08:24.018Z,18.50
2019-04-04T06:08:57.497Z,18.05
2019-04-04T06:09:31.064Z,17.62
2019-04-04T06:10:05.083Z,16.85
2019-04-04T06:10:38.566Z,17.25
2019-04-04T06:11:11.965Z,16.75
2019-04-04T06:11:48.435Z,18.40
2019-04-04T06:12:20.745Z,17.60
2019-04-04T06:12:55.892Z,18.00
2019-04-04T06:13:29.453Z,18.48
2019-04-04T06:14:02.952Z,16.82
2019-04-04T06:14:36.367Z,18.48
2019-04-04T06:15:09.854Z,18.32
2019-04-04T06:15:43.397Z,18.02
2019-04-04T06:16:16.978Z,17.62
2019-04-04T06:16:50.469Z,18.27
2019-04-04T06:17:26.926Z,17.30
2019-04-04T06:17:59.279Z,17.75
2019-04-04T06:18:32.825Z,17.62
2019-04-04T06:19:06.339Z,17.67
2019-04-04T06:19:39.887Z,19.00
2019-04-04T06:20:15.077Z,17.67
2019-04-04T06:20:49.086Z,18.32
2019-04-04T06:21:22.519Z,17.42
2019-04-04T06:21:56.019Z,18.17
2019-04-04T06:22:29.492Z,17.12
2019-04-04T06:23:02.979Z,17.75
2019-04-04T06:23:36.394Z,18.20
2019-04-04T06:24:09.883Z,17.37
2019-04-04T06:24:43.365Z,17.65
2019-04-04T06:25:16.846Z,17.48
2019-04-04T06:25:50.336Z,17.12
2019-04-04T06:26:23.827Z,17.12
2019-04-04T06:26:57.305Z,16.85
2019-04-04T06:27:30.804Z,17.62
2019-04-04T06:28:04.303Z,17.00
2019-04-04T06:28:37.795Z,18.10
2019-04-04T06:29:11.277Z,16.82
2019-04-04T06:29:47.596Z,17.27
2019-04-04T06:30:20.253Z,19.15
2019-04-04T06:30:54.436Z,16.85
2019-04-04T06:31:30.606Z,18.77
2019-04-04T06:32:03.198Z,16.87
2019-04-04T06:32:38.790Z,17.98
2019-04-04T06:33:11.927Z,17.87
2019-04-04T06:33:45.469Z,16.23
2019-04-04T06:34:18.959Z,17.73
2019-04-04T06:34:52.441Z,17.75
2019-04-04T06:35:25.922Z,17.57
2019-04-04T06:35:59.398Z,16.20
2019-04-04T06:36:32.878Z,17.70
2019-04-04T06:37:06.362Z,16.67
2019-04-04T06:37:40.785Z,17.02
2019-04-04T06:38:14.282Z,16.32
2019-04-04T06:38:49.794Z,16.90
2019-04-04T06:39:24.784Z,16.05
2019-04-04T06:39:58.980Z,17.65
2019-04-04T06:40:33.145Z,17.45
2019-04-04T06:41:06.629Z,17.85
2019-04-04T06:41:40.110Z,17.35
2019-04-04T06:42:13.599Z,17.35
2019-04-04T06:42:47.096Z,16.45
2019-04-04T06:43:20.581Z,16.80
2019-04-04T06:43:54.052Z,17.30
2019-04-04T06:44:27.545Z,16.48
2019-04-04T06:45:01.026Z,17.80
2019-04-04T06:45:34.621Z,17.50
2019-04-04T06:46:08.136Z,16.90
2019-04-04T06:46:41.613Z,15.98
2019-04-04T06:47:16.447Z,16.10
2019-04-04T06:47:50.686Z,16.60
2019-04-04T06:48:24.179Z,16.67
2019-04-04T06:48:57.711Z,17.25
2019-04-04T06:49:31.118Z,17.45
2019-04-04T06:50:08.031Z,16.45
2019-04-04T06:50:43.001Z,17.60
2019-04-04T06:51:16.701Z,16.27
2019-04-04T06:51:50.122Z,16.27
2019-04-04T06:52:23.689Z,15.75
2019-04-04T06:52:57.214Z,17.17
2019-04-04T06:53:30.682Z,16.70
2019-04-04T06:54:04.374Z,16.40
2019-04-04T06:54:37.844Z,16.75
2019-04-04T06:55:11.352Z,17.05
2019-04-04T06:55:44.880Z,17.45
2019-04-04T06:56:18.389Z,16.67
2019-04-04T06:56:51.810Z,16.00
2019-04-04T06:57:25.301Z,16.93
2019-04-04T06:57:59.751Z,16.45
2019-04-04T06:58:33.191Z,15.15
2019-04-04T06:59:06.674Z,15.40
2019-04-04T06:59:42.890Z,16.70
2019-04-04T07:00:16.562Z,16.50
2019-04-04T07:00:50.383Z,15.23
2019-04-04T07:01:25.348Z,15.78
2019-04-04T07:01:59.093Z,15.40
2019-04-04T07:02:32.578Z,16.20
2019-04-04T07:03:06.745Z,16.40
2019-04-04T07:03:40.258Z,16.70
2019-04-04T07:04:13.755Z,16.25
2019-04-04T07:04:47.269Z,15.88
2019-04-04T07:05:20.761Z,16.45
2019-04-04T07:05:54.237Z,15.75
2019-04-04T07:06:27.722Z,16.07
2019-04-04T07:07:01.225Z,15.80
2019-04-04T07:07:34.711Z,15.68
2019-04-04T07:08:08.219Z,16.55
2019-04-04T07:08:41.698Z,16.65
2019-04-04T07:09:18.087Z,15.23
2019-04-04T07:09:50.952Z,16.67
2019-04-04T07:10:24.563Z,16.20
2019-04-04T07:11:00.408Z,15.95
2019-04-04T07:11:35.195Z,16.87
2019-04-04T07:12:20.365Z,16.23
2019-04-04T07:12:43.511Z,17.10
2019-04-04T07:13:22.250Z,15.80
2019-04-04T07:13:52.228Z,16.32
2019-04-04T07:14:25.711Z,16.52
2019-04-04T07:14:59.203Z,15.45